Time;durP1;ratioP1;P1;durP2;ratioP2;P2;SDS_P1;SDS_P2;PMS_P1;PMS_P2;Temp;Humidity;BMP_temperature;BMP_pressure;BME280_temperature;BME280_humidity;BME280_pressure;Samples;Min_cycle;Max_cycle;Signal;HPM_P1;HPM_P2
2022/02/01 00:00:10;;;;;;;;;;;24.00;46.80;;;;;;1475350;80;1130;-74
2022/02/01 00:01:53;;;;;;;;;;;24.00;46.80;;;;;;1535742;76;1921;-72
2022/02/01 00:03:54;;;;;;;;;;;24.00;46.80;;;;;;1554255;76;1620;-72
2022/02/01 00:06:04;;;;;;;;;;;24.00;46.80;;;;;;1574629;75;1140;-73
2022/02/01 00:08:09;;;;;;;;;;;24.10;47.00;;;;;;1579914;75;1653;-73
2022/02/01 00:10:15;;;;;;;;;;;24.10;47.10;;;;;;1579606;75;1654;-73
2022/02/01 00:12:18;;;;;;;;;;;24.00;46.90;;;;;;1580227;75;1689;-73
2022/02/01 00:14:43;;;;;;;;;;;24.00;46.90;;;;;;1580374;75;1634;-73
2022/02/01 00:19:07;;;;;;;;;;;24.00;46.90;;;;;;1580638;75;881;-72
2022/02/01 00:37:00;;;;;;;;;;;24.10;47.10;;;;;;1582019;75;858;-71
2022/02/01 00:39:02;;;;;;;;;;;23.90;47.00;;;;;;1580962;75;1639;-71
2022/02/01 00:41:08;;;;;;;;;;;24.00;47.00;;;;;;1581712;75;1939;-71
2022/02/01 00:43:08;;;;;;;;;;;24.00;47.00;;;;;;1579996;75;1593;-71
2022/02/01 00:45:10;;;;;;;;;;;24.00;47.00;;;;;;1555323;76;1145;-71
2022/02/01 00:47:12;;;;;;;;;;;24.00;47.00;;;;;;1555662;76;706;-71
2022/02/01 00:49:14;;;;;;;;;;;24.00;46.90;;;;;;1556998;75;646;-72
2022/02/01 00:51:16;;;;;;;;;;;24.00;47.00;;;;;;1555450;76;788;-73
2022/02/01 00:53:26;;;;;;;;;;;24.00;47.00;;;;;;1561854;75;752;-75
2022/02/01 00:55:22;;;;;;;;;;;24.00;47.00;;;;;;1562091;75;1713;-74
2022/02/01 00:57:24;;;;;;;;;;;24.00;47.10;;;;;;1564269;75;713;-74
2022/02/01 00:59:25;;;;;;;;;;;24.10;47.10;;;;;;1582443;75;721;-75
2022/02/01 01:01:27;;;;;;;;;;;24.00;47.00;;;;;;1582300;75;1930;-75
2022/02/01 01:03:29;;;;;;;;;;;24.00;47.00;;;;;;1582280;75;1132;-75
2022/02/01 01:05:31;;;;;;;;;;;24.00;47.00;;;;;;1582120;75;740;-73
2022/02/01 01:07:33;;;;;;;;;;;24.00;47.00;;;;;;1582273;75;841;-74
2022/02/01 01:09:35;;;;;;;;;;;24.00;47.10;;;;;;1582266;75;600;-74
2022/02/01 01:11:37;;;;;;;;;;;24.10;47.20;;;;;;1582450;75;708;-72
2022/02/01 01:14:04;;;;;;;;;;;24.00;47.00;;;;;;1582230;75;1098;-72
2022/02/01 01:15:51;;;;;;;;;;;24.00;47.00;;;;;;1574559;75;1408;-72
2022/02/01 01:43:31;;;;;;;;;;;23.90;46.90;;;;;;1582150;75;1622;-72
2022/02/01 01:45:49;;;;;;;;;;;23.90;46.90;;;;;;1555351;76;1642;-72
2022/02/01 01:54:33;;;;;;;;;;;24.00;47.10;;;;;;1562831;75;1609;-73
2022/02/01 01:56:35;;;;;;;;;;;23.90;47.10;;;;;;1562836;75;737;-73
2022/02/01 01:58:37;;;;;;;;;;;23.90;47.10;;;;;;1558898;75;732;-72
2022/02/01 02:02:55;;;;;;;;;;;23.90;47.10;;;;;;1555407;76;1913;-73
2022/02/01 02:04:56;;;;;;;;;;;23.90;47.10;;;;;;1555547;76;1197;-74
2022/02/01 02:06:58;;;;;;;;;;;24.00;47.10;;;;;;1580956;75;722;-72
2022/02/01 02:09:02;;;;;;;;;;;24.00;47.10;;;;;;1582332;75;685;-73
2022/02/01 02:11:11;;;;;;;;;;;24.00;47.10;;;;;;1582301;75;721;-74
2022/02/01 02:15:37;;;;;;;;;;;23.90;47.10;;;;;;1555444;76;898;-72
2022/02/01 02:17:33;;;;;;;;;;;23.90;47.10;;;;;;1553975;76;1627;-73
2022/02/01 02:19:35;;;;;;;;;;;23.90;47.10;;;;;;1561484;74;721;-72
2022/02/01 02:21:37;;;;;;;;;;;24.00;47.10;;;;;;1582202;75;1925;-72
2022/02/01 02:23:39;;;;;;;;;;;23.90;47.10;;;;;;1572650;75;1243;-73
2022/02/01 02:25:41;;;;;;;;;;;23.90;47.10;;;;;;1575581;74;760;-73
2022/02/01 02:27:43;;;;;;;;;;;23.90;47.10;;;;;;1582168;75;1007;-74
2022/02/01 02:29:45;;;;;;;;;;;24.00;47.10;;;;;;1582138;75;656;-73
2022/02/01 02:31:47;;;;;;;;;;;23.90;47.10;;;;;;1582322;75;956;-74
2022/02/01 02:33:49;;;;;;;;;;;24.00;47.10;;;;;;1582337;75;1141;-74
2022/02/01 02:35:57;;;;;;;;;;;23.90;47.20;;;;;;1581966;75;780;-74
2022/02/01 02:37:59;;;;;;;;;;;24.00;47.10;;;;;;1582263;75;784;-75
2022/02/01 02:40:36;;;;;;;;;;;24.00;47.10;;;;;;1582314;75;725;-74
2022/02/01 02:45:04;;;;;;;;;;;23.90;47.20;;;;;;1554720;75;1913;-71
2022/02/01 02:46:56;;;;;;;;;;;24.00;47.20;;;;;;1537244;76;1656;-72
2022/02/01 02:48:58;;;;;;;;;;;24.00;47.20;;;;;;1551959;76;794;-72
2022/02/01 02:51:00;;;;;;;;;;;24.00;47.20;;;;;;1565727;75;1319;-72
2022/02/01 02:53:02;;;;;;;;;;;24.00;47.10;;;;;;1582331;75;647;-72
2022/02/01 02:55:04;;;;;;;;;;;24.00;47.20;;;;;;1582396;75;790;-73
2022/02/01 02:57:06;;;;;;;;;;;24.00;47.20;;;;;;1576773;75;720;-72
2022/02/01 02:59:08;;;;;;;;;;;23.90;47.10;;;;;;1570600;75;724;-71
2022/02/01 03:01:10;;;;;;;;;;;24.00;47.10;;;;;;1572739;75;1161;-73
2022/02/01 03:03:12;;;;;;;;;;;23.90;47.10;;;;;;1572470;75;1930;-72
2022/02/01 03:05:13;;;;;;;;;;;24.00;47.10;;;;;;1572337;75;721;-72
2022/02/01 03:07:15;;;;;;;;;;;23.90;47.20;;;;;;1572799;75;694;-71
2022/02/01 03:09:19;;;;;;;;;;;23.90;47.20;;;;;;1572616;75;698;-71
2022/02/01 03:11:21;;;;;;;;;;;23.90;47.10;;;;;;1572704;75;1142;-72
2022/02/01 03:13:27;;;;;;;;;;;23.90;47.10;;;;;;1572130;75;752;-72
2022/02/01 03:19:58;;;;;;;;;;;23.90;47.20;;;;;;1571849;75;810;-71
2022/02/01 03:21:58;;;;;;;;;;;24.00;47.10;;;;;;1581106;75;1933;-71
2022/02/01 03:24:00;;;;;;;;;;;24.00;47.20;;;;;;1582384;75;723;-71
2022/02/01 03:26:01;;;;;;;;;;;24.00;47.20;;;;;;1582172;75;733;-71
2022/02/01 03:28:03;;;;;;;;;;;24.00;47.10;;;;;;1582452;75;763;-73
2022/02/01 03:30:05;;;;;;;;;;;24.00;47.10;;;;;;1573550;75;719;-73
2022/02/01 03:32:08;;;;;;;;;;;23.90;47.10;;;;;;1572744;75;680;-72
2022/02/01 03:34:09;;;;;;;;;;;23.90;47.10;;;;;;1572676;75;683;-72
2022/02/01 03:36:11;;;;;;;;;;;24.00;47.10;;;;;;1572553;75;714;-73
2022/02/01 03:38:13;;;;;;;;;;;24.00;47.10;;;;;;1581367;75;722;-72
2022/02/01 03:40:18;;;;;;;;;;;24.00;47.00;;;;;;1582367;75;1148;-72
2022/02/01 03:42:20;;;;;;;;;;;24.00;47.10;;;;;;1581752;75;1934;-72
2022/02/01 03:44:22;;;;;;;;;;;24.00;47.10;;;;;;1582316;75;742;-72
2022/02/01 03:46:24;;;;;;;;;;;24.00;47.10;;;;;;1572413;75;729;-72
2022/02/01 03:48:26;;;;;;;;;;;24.00;47.10;;;;;;1572622;75;820;-71
2022/02/01 03:50:28;;;;;;;;;;;24.00;47.00;;;;;;1542348;75;1166;-71
2022/02/01 03:52:30;;;;;;;;;;;24.10;47.20;;;;;;1537708;77;648;-71
2022/02/01 03:54:32;;;;;;;;;;;24.10;47.20;;;;;;1537727;77;710;-71
2022/02/01 03:56:34;;;;;;;;;;;24.10;47.20;;;;;;1537635;77;721;-71
2022/02/01 03:58:36;;;;;;;;;;;24.20;47.10;;;;;;1553426;75;772;-71
2022/02/01 04:00:37;;;;;;;;;;;24.10;47.10;;;;;;1555431;76;1181;-70
2022/02/01 04:02:39;;;;;;;;;;;24.20;47.20;;;;;;1555483;76;1937;-70
2022/02/01 04:04:41;;;;;;;;;;;24.20;47.10;;;;;;1555353;76;651;-70
2022/02/01 04:06:43;;;;;;;;;;;24.20;47.10;;;;;;1561095;75;712;-70
2022/02/01 04:08:45;;;;;;;;;;;24.20;47.10;;;;;;1582220;75;734;-70
2022/02/01 04:10:49;;;;;;;;;;;24.20;47.10;;;;;;1582304;75;1172;-70
2022/02/01 04:12:51;;;;;;;;;;;24.20;47.10;;;;;;1582187;75;1071;-71
2022/02/01 04:14:56;;;;;;;;;;;24.20;47.10;;;;;;1582165;75;710;-71
2022/02/01 04:16:57;;;;;;;;;;;24.20;47.00;;;;;;1565449;75;999;-70
2022/02/01 04:19:03;;;;;;;;;;;24.30;47.10;;;;;;1559363;75;723;-71
2022/02/01 04:21:03;;;;;;;;;;;24.30;47.00;;;;;;1571253;75;1133;-72
2022/02/01 04:23:05;;;;;;;;;;;24.30;47.00;;;;;;1554769;75;1933;-71
2022/02/01 04:25:07;;;;;;;;;;;24.30;47.00;;;;;;1555399;76;727;-71
2022/02/01 04:27:15;;;;;;;;;;;24.30;46.90;;;;;;1555540;76;788;-70
2022/02/01 04:29:13;;;;;;;;;;;24.40;46.90;;;;;;1563080;75;1168;-71
2022/02/01 04:31:14;;;;;;;;;;;24.30;46.80;;;;;;1582114;75;1144;-72
2022/02/01 04:33:16;;;;;;;;;;;24.40;46.80;;;;;;1575929;75;735;-72
2022/02/01 04:35:20;;;;;;;;;;;24.40;46.80;;;;;;1555648;76;686;-70
2022/02/01 04:37:22;;;;;;;;;;;24.30;46.80;;;;;;1554136;75;1060;-71
2022/02/01 04:39:24;;;;;;;;;;;24.40;46.70;;;;;;1555685;76;722;-70
2022/02/01 04:41:26;;;;;;;;;;;24.40;46.70;;;;;;1570597;75;1127;-70
2022/02/01 04:43:28;;;;;;;;;;;24.40;46.60;;;;;;1582356;75;1886;-72
2022/02/01 04:45:30;;;;;;;;;;;24.30;46.60;;;;;;1575847;75;711;-75
2022/02/01 04:47:34;;;;;;;;;;;24.40;46.50;;;;;;1555441;76;707;-75
2022/02/01 04:49:35;;;;;;;;;;;24.40;46.60;;;;;;1563872;75;1561;-70
2022/02/01 04:51:38;;;;;;;;;;;24.50;46.70;;;;;;1572657;75;1189;-72
2022/02/01 04:53:39;;;;;;;;;;;24.40;46.60;;;;;;1569781;75;673;-72
2022/02/01 04:57:54;;;;;;;;;;;24.40;46.60;;;;;;1565959;75;865;-73
2022/02/01 04:59:56;;;;;;;;;;;24.40;46.50;;;;;;1572648;75;655;-73
2022/02/01 05:01:58;;;;;;;;;;;24.40;46.50;;;;;;1563623;75;1128;-74
2022/02/01 05:03:59;;;;;;;;;;;24.40;46.50;;;;;;1564914;75;1934;-72
2022/02/01 05:06:02;;;;;;;;;;;24.40;46.50;;;;;;1561946;75;727;-71
2022/02/01 05:08:07;;;;;;;;;;;24.40;46.50;;;;;;1563059;75;684;-73
2022/02/01 05:10:08;;;;;;;;;;;24.50;46.60;;;;;;1565705;75;1223;-72
2022/02/01 05:12:10;;;;;;;;;;;24.40;46.50;;;;;;1566528;75;718;-73
2022/02/01 05:14:31;;;;;;;;;;;24.50;46.50;;;;;;1565658;75;659;-71
2022/02/01 05:16:22;;;;;;;;;;;24.50;46.50;;;;;;1557995;75;1512;-70
2022/02/01 05:18:25;;;;;;;;;;;24.40;46.40;;;;;;1563627;75;1356;-69
2022/02/01 05:20:44;;;;;;;;;;;24.50;46.50;;;;;;1569746;75;1172;-69
2022/02/01 05:22:32;;;;;;;;;;;24.50;46.50;;;;;;1575943;75;1585;-72
2022/02/01 05:24:36;;;;;;;;;;;24.50;46.40;;;;;;1580065;75;1904;-71
2022/02/01 05:26:36;;;;;;;;;;;24.50;46.40;;;;;;1572208;75;1578;-72
2022/02/01 05:28:38;;;;;;;;;;;24.50;46.30;;;;;;1582413;75;679;-72
2022/02/01 05:30:40;;;;;;;;;;;24.50;46.30;;;;;;1570991;75;1146;-68
2022/02/01 05:32:41;;;;;;;;;;;24.50;46.30;;;;;;1572618;75;727;-71
2022/02/01 05:34:43;;;;;;;;;;;24.50;46.30;;;;;;1562983;75;746;-70
2022/02/01 05:36:45;;;;;;;;;;;24.50;46.30;;;;;;1564572;75;733;-70
2022/02/01 05:38:50;;;;;;;;;;;24.50;46.30;;;;;;1566773;75;722;-71
2022/02/01 05:40:51;;;;;;;;;;;24.50;46.30;;;;;;1560887;75;1180;-73
2022/02/01 05:45:00;;;;;;;;;;;24.50;46.30;;;;;;1563018;75;894;-68
2022/02/01 05:47:01;;;;;;;;;;;24.50;46.30;;;;;;1562045;75;712;-70
2022/02/01 05:49:05;;;;;;;;;;;24.50;46.30;;;;;;1560115;75;741;-71
2022/02/01 05:51:07;;;;;;;;;;;24.50;46.30;;;;;;1562091;75;1118;-71
2022/02/01 05:53:09;;;;;;;;;;;24.50;46.30;;;;;;1560995;75;899;-73
2022/02/01 05:55:11;;;;;;;;;;;24.50;46.50;;;;;;1560953;75;729;-70
2022/02/01 05:57:14;;;;;;;;;;;24.60;46.50;;;;;;1555450;75;729;-70
2022/02/01 05:59:16;;;;;;;;;;;24.50;46.50;;;;;;1569356;75;755;-70
2022/02/01 06:01:20;;;;;;;;;;;24.50;46.40;;;;;;1571312;75;1189;-70
2022/02/01 06:03:22;;;;;;;;;;;24.50;46.40;;;;;;1564961;75;1902;-70
2022/02/01 06:05:24;;;;;;;;;;;24.50;46.30;;;;;;1558849;75;718;-70
2022/02/01 06:07:26;;;;;;;;;;;24.50;46.40;;;;;;1568714;75;685;-71
2022/02/01 06:09:28;;;;;;;;;;;24.50;46.30;;;;;;1572713;75;727;-72
2022/02/01 06:11:30;;;;;;;;;;;24.50;46.40;;;;;;1569832;75;1196;-73
2022/02/01 06:13:36;;;;;;;;;;;24.60;46.50;;;;;;1573184;75;738;-73
2022/02/01 06:15:37;;;;;;;;;;;24.60;46.50;;;;;;1563426;75;1144;-71
2022/02/01 06:17:39;;;;;;;;;;;24.60;46.40;;;;;;1563925;75;785;-72
2022/02/01 06:19:40;;;;;;;;;;;24.60;46.40;;;;;;1579544;75;672;-74
2022/02/01 06:21:42;;;;;;;;;;;24.60;46.40;;;;;;1577052;75;1133;-69
2022/02/01 06:23:44;;;;;;;;;;;24.60;46.50;;;;;;1572703;75;1922;-69
2022/02/01 06:25:50;;;;;;;;;;;24.60;46.50;;;;;;1572582;75;723;-68
2022/02/01 06:27:52;;;;;;;;;;;24.50;46.50;;;;;;1572561;75;608;-71
2022/02/01 06:29:54;;;;;;;;;;;24.60;46.50;;;;;;1575692;75;701;-71
2022/02/01 06:31:56;;;;;;;;;;;24.50;46.50;;;;;;1564698;75;1121;-72
2022/02/01 06:33:58;;;;;;;;;;;24.50;46.50;;;;;;1555984;75;710;-71
2022/02/01 06:36:00;;;;;;;;;;;24.60;46.50;;;;;;1561015;75;754;-72
2022/02/01 06:38:01;;;;;;;;;;;24.50;46.50;;;;;;1570547;75;749;-71
2022/02/01 06:40:03;;;;;;;;;;;24.50;46.50;;;;;;1563453;75;775;-71
2022/02/01 06:42:06;;;;;;;;;;;24.50;46.50;;;;;;1566656;75;1165;-71
2022/02/01 06:44:08;;;;;;;;;;;24.50;46.50;;;;;;1561507;75;1942;-71
2022/02/01 06:46:10;;;;;;;;;;;24.50;46.40;;;;;;1566211;75;750;-71
2022/02/01 06:48:12;;;;;;;;;;;24.50;46.40;;;;;;1564682;75;753;-71
2022/02/01 06:50:18;;;;;;;;;;;24.50;46.30;;;;;;1574422;75;1176;-71
2022/02/01 06:52:17;;;;;;;;;;;24.40;46.30;;;;;;1567428;75;1058;-71
2022/02/01 06:54:19;;;;;;;;;;;24.40;46.30;;;;;;1566014;75;680;-71
2022/02/01 06:56:28;;;;;;;;;;;24.40;46.30;;;;;;1563987;75;687;-72
2022/02/01 06:58:25;;;;;;;;;;;24.40;46.30;;;;;;1572180;75;1047;-73
2022/02/01 07:00:27;;;;;;;;;;;24.50;46.40;;;;;;1572197;75;1117;-70
2022/02/01 07:02:29;;;;;;;;;;;24.40;46.30;;;;;;1555541;76;768;-70
2022/02/01 07:04:30;;;;;;;;;;;24.40;46.30;;;;;;1555495;76;1938;-73
2022/02/01 07:06:34;;;;;;;;;;;24.40;46.30;;;;;;1555336;76;728;-72
2022/02/01 07:08:36;;;;;;;;;;;24.30;46.30;;;;;;1569115;75;709;-72
2022/02/01 07:10:38;;;;;;;;;;;24.30;46.20;;;;;;1582214;75;1176;-72
2022/02/01 07:12:39;;;;;;;;;;;24.40;46.20;;;;;;1582299;75;762;-70
2022/02/01 07:14:41;;;;;;;;;;;24.30;46.20;;;;;;1582365;75;740;-71
2022/02/01 07:16:43;;;;;;;;;;;24.40;46.10;;;;;;1576331;75;725;-71
2022/02/01 07:18:45;;;;;;;;;;;24.30;46.10;;;;;;1569079;75;710;-72
2022/02/01 07:20:47;;;;;;;;;;;24.40;46.00;;;;;;1560607;75;1141;-73
2022/02/01 07:22:49;;;;;;;;;;;24.40;46.00;;;;;;1564544;75;723;-73
2022/02/01 07:25:00;;;;;;;;;;;24.30;46.00;;;;;;1572218;75;1908;-73
2022/02/01 07:26:58;;;;;;;;;;;24.30;46.00;;;;;;1561579;75;1192;-73
2022/02/01 07:29:00;;;;;;;;;;;24.40;46.00;;;;;;1566962;75;705;-72
2022/02/01 07:31:02;;;;;;;;;;;24.30;46.00;;;;;;1564219;75;1123;-72
2022/02/01 07:33:04;;;;;;;;;;;24.40;45.90;;;;;;1570139;75;734;-73
2022/02/01 07:35:06;;;;;;;;;;;24.30;45.90;;;;;;1558014;75;747;-73
2022/02/01 07:37:08;;;;;;;;;;;24.40;45.90;;;;;;1565823;75;672;-72
2022/02/01 07:39:10;;;;;;;;;;;24.30;45.80;;;;;;1572031;75;711;-74
2022/02/01 07:41:12;;;;;;;;;;;24.30;45.80;;;;;;1565703;75;1154;-73
2022/02/01 07:43:14;;;;;;;;;;;24.30;45.80;;;;;;1576389;75;799;-74
2022/02/01 07:45:18;;;;;;;;;;;24.30;45.70;;;;;;1570908;75;1931;-73
2022/02/01 07:47:24;;;;;;;;;;;24.40;45.70;;;;;;1570970;75;741;-72
2022/02/01 07:49:23;;;;;;;;;;;24.40;45.70;;;;;;1566909;75;903;-71
2022/02/01 07:51:25;;;;;;;;;;;24.50;45.80;;;;;;1563193;75;1193;-73
2022/02/01 07:53:27;;;;;;;;;;;24.40;45.70;;;;;;1565819;75;714;-72
2022/02/01 07:55:29;;;;;;;;;;;24.40;45.60;;;;;;1574094;75;691;-73
2022/02/01 07:57:31;;;;;;;;;;;24.30;45.50;;;;;;1564912;75;720;-73
2022/02/01 07:59:33;;;;;;;;;;;24.40;45.60;;;;;;1561275;75;734;-71
2022/02/01 08:01:35;;;;;;;;;;;24.40;45.50;;;;;;1567472;75;1146;-72
2022/02/01 08:03:37;;;;;;;;;;;24.50;45.60;;;;;;1568040;75;1932;-72
2022/02/01 08:05:39;;;;;;;;;;;24.40;45.50;;;;;;1563501;75;711;-71
2022/02/01 08:07:40;;;;;;;;;;;24.40;45.40;;;;;;1566473;75;703;-71
2022/02/01 08:09:47;;;;;;;;;;;24.50;45.50;;;;;;1563975;75;758;-72
2022/02/01 08:11:46;;;;;;;;;;;24.40;45.40;;;;;;1567901;75;1122;-71
2022/02/01 08:14:53;;;;;;;;;;;24.40;45.40;;;;;;1569990;75;738;-71
2022/02/01 08:20:37;;;;;;;;;;;24.40;45.40;;;;;;1567021;75;1125;-73
2022/02/01 08:24:38;;;;;;;;;;;24.40;45.30;;;;;;1566642;75;1914;-73
2022/02/01 08:26:40;;;;;;;;;;;24.50;45.50;;;;;;1568153;75;730;-70
2022/02/01 08:28:42;;;;;;;;;;;24.40;45.30;;;;;;1564202;75;746;-72
2022/02/01 08:30:44;;;;;;;;;;;24.40;45.30;;;;;;1569210;75;1162;-72
2022/02/01 08:32:46;;;;;;;;;;;24.40;45.30;;;;;;1568847;75;714;-72
2022/02/01 08:34:48;;;;;;;;;;;24.50;45.30;;;;;;1566835;75;763;-71
2022/02/01 08:36:50;;;;;;;;;;;24.40;45.20;;;;;;1558012;75;722;-73
2022/02/01 08:38:54;;;;;;;;;;;24.50;45.40;;;;;;1565380;75;656;-73
2022/02/01 08:40:58;;;;;;;;;;;24.40;45.20;;;;;;1566957;75;1127;-73
2022/02/01 08:42:59;;;;;;;;;;;24.40;45.20;;;;;;1562432;75;1096;-71
2022/02/01 08:45:03;;;;;;;;;;;24.50;45.30;;;;;;1563225;75;1927;-74
2022/02/01 08:47:05;;;;;;;;;;;24.40;45.20;;;;;;1565194;75;692;-72
2022/02/01 08:49:07;;;;;;;;;;;24.40;45.20;;;;;;1570412;75;722;-72
2022/02/01 08:51:11;;;;;;;;;;;24.40;45.10;;;;;;1566282;75;1176;-72
2022/02/01 08:53:18;;;;;;;;;;;24.40;45.10;;;;;;1559147;75;1118;-72
2022/02/01 08:55:32;;;;;;;;;;;24.40;45.10;;;;;;1571015;75;1107;-71
2022/02/01 08:57:25;;;;;;;;;;;24.40;45.10;;;;;;1566088;75;1220;-72
2022/02/01 08:59:26;;;;;;;;;;;24.40;45.10;;;;;;1565860;75;1172;-69
2022/02/01 09:01:28;;;;;;;;;;;24.40;45.10;;;;;;1566928;75;1156;-73
2022/02/01 09:03:31;;;;;;;;;;;24.40;45.10;;;;;;1562215;75;694;-72
2022/02/01 09:05:33;;;;;;;;;;;24.50;45.20;;;;;;1577658;75;1890;-73
2022/02/01 09:07:35;;;;;;;;;;;24.50;45.20;;;;;;1577511;75;659;-73
2022/02/01 09:09:37;;;;;;;;;;;24.40;45.10;;;;;;1572683;75;787;-72
2022/02/01 09:11:39;;;;;;;;;;;24.40;45.10;;;;;;1572652;75;1190;-73
2022/02/01 09:13:42;;;;;;;;;;;24.50;45.20;;;;;;1572805;75;782;-72
2022/02/01 09:15:44;;;;;;;;;;;24.50;45.20;;;;;;1573556;75;714;-72
2022/02/01 09:17:47;;;;;;;;;;;24.50;45.10;;;;;;1582470;75;718;-71
2022/02/01 09:19:49;;;;;;;;;;;24.50;45.20;;;;;;1581496;75;710;-72
2022/02/01 09:21:50;;;;;;;;;;;24.50;45.20;;;;;;1582227;75;1110;-72
2022/02/01 09:23:52;;;;;;;;;;;24.50;45.10;;;;;;1582409;75;714;-74
2022/02/01 09:25:54;;;;;;;;;;;24.50;45.10;;;;;;1573500;75;1937;-73
2022/02/01 09:27:56;;;;;;;;;;;24.50;45.20;;;;;;1575486;75;782;-73
2022/02/01 09:29:58;;;;;;;;;;;24.50;45.10;;;;;;1582437;75;715;-73
2022/02/01 09:32:00;;;;;;;;;;;24.50;45.00;;;;;;1576348;75;1120;-73
2022/02/01 09:34:02;;;;;;;;;;;24.50;45.10;;;;;;1567191;75;719;-73
2022/02/01 09:36:06;;;;;;;;;;;24.50;45.10;;;;;;1572600;75;706;-72
2022/02/01 09:38:08;;;;;;;;;;;24.50;45.00;;;;;;1573094;75;703;-72
2022/02/01 09:40:10;;;;;;;;;;;24.50;45.00;;;;;;1582429;75;1137;-73
2022/02/01 09:42:12;;;;;;;;;;;24.50;45.00;;;;;;1582352;75;798;-74
2022/02/01 09:44:14;;;;;;;;;;;24.50;45.00;;;;;;1582215;75;1932;-73
2022/02/01 09:46:15;;;;;;;;;;;24.50;45.00;;;;;;1574139;75;802;-72
2022/02/01 09:48:17;;;;;;;;;;;24.50;45.10;;;;;;1560127;75;724;-72
2022/02/01 09:50:19;;;;;;;;;;;24.50;45.00;;;;;;1567784;75;1106;-71
2022/02/01 09:52:22;;;;;;;;;;;24.50;45.00;;;;;;1568476;75;780;-72
2022/02/01 09:54:24;;;;;;;;;;;24.50;45.00;;;;;;1568528;75;701;-73
2022/02/01 09:56:26;;;;;;;;;;;24.50;45.00;;;;;;1570245;75;696;-71
2022/02/01 09:58:29;;;;;;;;;;;24.50;45.00;;;;;;1560150;75;708;-73
2022/02/01 10:00:35;;;;;;;;;;;24.50;45.00;;;;;;1565059;75;1156;-74
2022/02/01 10:02:38;;;;;;;;;;;24.50;45.00;;;;;;1571933;75;1027;-74
2022/02/01 10:04:40;;;;;;;;;;;24.60;44.90;;;;;;1569592;75;1918;-71
2022/02/01 10:06:42;;;;;;;;;;;24.50;44.90;;;;;;1565429;75;668;-73
2022/02/01 10:08:48;;;;;;;;;;;24.50;44.90;;;;;;1567557;75;731;-73
2022/02/01 10:10:49;;;;;;;;;;;24.50;45.00;;;;;;1561115;75;1184;-73
2022/02/01 10:13:12;;;;;;;;;;;24.50;45.00;;;;;;1568596;75;1438;-74
2022/02/01 10:15:16;;;;;;;;;;;24.50;44.90;;;;;;1563460;75;1171;-73
2022/02/01 10:17:12;;;;;;;;;;;24.50;45.00;;;;;;1569394;75;1105;-73
2022/02/01 10:19:14;;;;;;;;;;;24.50;45.00;;;;;;1567942;75;684;-74
2022/02/01 10:21:16;;;;;;;;;;;24.50;45.00;;;;;;1567652;75;1199;-74
2022/02/01 10:23:27;;;;;;;;;;;24.50;44.90;;;;;;1568850;75;746;-73
2022/02/01 10:25:29;;;;;;;;;;;24.40;44.90;;;;;;1559885;75;2085;-72
2022/02/01 10:27:32;;;;;;;;;;;24.40;44.90;;;;;;1565414;75;711;-76
2022/02/01 10:29:35;;;;;;;;;;;24.50;45.00;;;;;;1570390;75;700;-73
2022/02/01 10:31:42;;;;;;;;;;;24.40;44.90;;;;;;1567412;75;1198;-74
2022/02/01 10:33:59;;;;;;;;;;;24.50;45.00;;;;;;1571895;75;1116;-73
2022/02/01 10:35:58;;;;;;;;;;;24.40;45.00;;;;;;1564836;75;1245;-74
2022/02/01 10:38:03;;;;;;;;;;;24.40;44.90;;;;;;1560057;75;698;-73
2022/02/01 10:40:07;;;;;;;;;;;24.40;44.90;;;;;;1572616;75;688;-74
2022/02/01 10:42:09;;;;;;;;;;;24.40;44.90;;;;;;1560316;75;742;-73
2022/02/01 10:44:11;;;;;;;;;;;24.50;45.00;;;;;;1568618;75;725;-73
2022/02/01 10:46:15;;;;;;;;;;;24.50;45.00;;;;;;1561378;75;1937;-74
2022/02/01 10:48:17;;;;;;;;;;;24.40;44.80;;;;;;1562286;75;739;-72
2022/02/01 10:50:22;;;;;;;;;;;24.50;44.90;;;;;;1564161;75;1150;-73
2022/02/01 10:52:22;;;;;;;;;;;24.40;44.70;;;;;;1562721;75;1125;-73
2022/02/01 10:54:24;;;;;;;;;;;24.50;44.90;;;;;;1562480;75;683;-73
2022/02/01 10:56:27;;;;;;;;;;;24.50;44.90;;;;;;1556558;75;760;-74
2022/02/01 10:58:29;;;;;;;;;;;24.50;44.90;;;;;;1568229;75;707;-74
2022/02/01 11:00:31;;;;;;;;;;;24.50;44.80;;;;;;1566500;75;1177;-74
2022/02/01 11:02:33;;;;;;;;;;;24.40;44.70;;;;;;1562562;75;725;-73
2022/02/01 11:04:35;;;;;;;;;;;24.50;44.80;;;;;;1562022;75;725;-73
2022/02/01 11:06:37;;;;;;;;;;;24.50;44.80;;;;;;1568408;75;1942;-73
2022/02/01 11:08:40;;;;;;;;;;;24.40;44.70;;;;;;1560897;75;770;-73
2022/02/01 11:10:49;;;;;;;;;;;24.50;44.70;;;;;;1564301;75;1168;-74
2022/02/01 11:12:51;;;;;;;;;;;24.50;44.70;;;;;;1570650;75;724;-73
2022/02/01 11:14:53;;;;;;;;;;;24.50;44.70;;;;;;1570443;75;697;-74
2022/02/01 11:17:02;;;;;;;;;;;24.50;44.70;;;;;;1568584;75;810;-74
2022/02/01 11:19:05;;;;;;;;;;;24.50;44.70;;;;;;1565052;75;1273;-75
2022/02/01 11:21:11;;;;;;;;;;;24.50;44.70;;;;;;1571228;75;1249;-74
2022/02/01 11:23:17;;;;;;;;;;;24.50;44.70;;;;;;1566694;75;747;-75
2022/02/01 11:25:21;;;;;;;;;;;24.50;44.60;;;;;;1564323;75;1907;-74
2022/02/01 11:27:33;;;;;;;;;;;24.50;44.60;;;;;;1568307;75;707;-74
2022/02/01 11:29:50;;;;;;;;;;;24.50;44.60;;;;;;1567184;75;1024;-74
2022/02/01 11:31:48;;;;;;;;;;;24.50;44.50;;;;;;1563760;75;1229;-71
2022/02/01 11:33:49;;;;;;;;;;;24.50;44.50;;;;;;1568004;75;1096;-74
2022/02/01 11:35:53;;;;;;;;;;;24.60;44.50;;;;;;1562325;75;717;-74
2022/02/01 11:37:55;;;;;;;;;;;24.50;44.50;;;;;;1564091;75;1051;-74
2022/02/01 11:39:57;;;;;;;;;;;24.50;44.40;;;;;;1568215;75;746;-73
2022/02/01 11:42:00;;;;;;;;;;;24.60;44.40;;;;;;1564290;75;1229;-73
2022/02/01 11:44:12;;;;;;;;;;;24.60;44.50;;;;;;1566105;75;714;-73
2022/02/01 11:46:16;;;;;;;;;;;24.60;44.50;;;;;;1562767;75;1915;-74
2022/02/01 11:48:19;;;;;;;;;;;24.50;44.40;;;;;;1571066;75;1542;-73
2022/02/01 11:50:23;;;;;;;;;;;24.60;44.50;;;;;;1571840;75;1259;-73
2022/02/01 11:52:25;;;;;;;;;;;24.60;44.40;;;;;;1563110;75;1399;-72
2022/02/01 11:54:27;;;;;;;;;;;24.50;44.40;;;;;;1572323;75;758;-73
2022/02/01 11:56:37;;;;;;;;;;;24.50;44.40;;;;;;1563772;75;1180;-76
2022/02/01 11:58:41;;;;;;;;;;;24.50;44.30;;;;;;1565720;75;717;-74
2022/02/01 12:00:43;;;;;;;;;;;24.60;44.30;;;;;;1563314;75;1158;-74
2022/02/01 12:02:49;;;;;;;;;;;24.60;44.30;;;;;;1565137;75;579;-72
2022/02/01 12:04:51;;;;;;;;;;;24.60;44.30;;;;;;1574622;75;705;-74
2022/02/01 12:06:58;;;;;;;;;;;24.60;44.30;;;;;;1561528;75;1928;-72
2022/02/01 12:08:58;;;;;;;;;;;24.50;44.30;;;;;;1566773;75;1128;-74
2022/02/01 12:11:01;;;;;;;;;;;24.60;44.20;;;;;;1566617;75;1186;-74
2022/02/01 12:13:03;;;;;;;;;;;24.50;44.30;;;;;;1563078;75;695;-74
2022/02/01 12:15:05;;;;;;;;;;;24.50;44.20;;;;;;1568459;75;723;-76
2022/02/01 12:17:07;;;;;;;;;;;24.60;44.20;;;;;;1568653;75;715;-75
2022/02/01 12:19:09;;;;;;;;;;;24.60;44.20;;;;;;1566163;75;738;-74
2022/02/01 12:21:12;;;;;;;;;;;24.60;44.20;;;;;;1564148;75;1155;-74
2022/02/01 12:23:16;;;;;;;;;;;24.60;44.10;;;;;;1560101;75;699;-75
2022/02/01 12:25:18;;;;;;;;;;;24.60;44.20;;;;;;1568915;75;1939;-74
2022/02/01 12:27:20;;;;;;;;;;;24.60;44.20;;;;;;1570110;75;742;-75
2022/02/01 12:29:22;;;;;;;;;;;24.60;44.10;;;;;;1564098;75;732;-74
2022/02/01 12:31:24;;;;;;;;;;;24.60;44.10;;;;;;1568405;75;1123;-73
2022/02/01 12:33:27;;;;;;;;;;;24.60;44.10;;;;;;1564829;75;693;-75
2022/02/01 12:35:33;;;;;;;;;;;24.60;44.10;;;;;;1560641;75;823;-75
2022/02/01 12:37:35;;;;;;;;;;;24.60;44.10;;;;;;1567530;75;772;-73
2022/02/01 12:39:43;;;;;;;;;;;24.60;44.10;;;;;;1568233;75;736;-73
2022/02/01 12:41:44;;;;;;;;;;;24.60;44.10;;;;;;1570866;75;1149;-72
2022/02/01 12:46:32;;;;;;;;;;;24.60;44.10;;;;;;1578517;75;1904;-75
2022/02/01 12:48:21;;;;;;;;;;;24.60;44.10;;;;;;1573136;75;1138;-73
2022/02/01 12:50:23;;;;;;;;;;;24.50;44.10;;;;;;1570960;75;1166;-72
2022/02/01 12:52:29;;;;;;;;;;;24.60;44.10;;;;;;1567573;75;728;-72
2022/02/01 12:54:39;;;;;;;;;;;24.60;44.10;;;;;;1567896;75;981;-71
2022/02/01 12:56:40;;;;;;;;;;;24.50;44.20;;;;;;1563372;75;925;-72
2022/02/01 12:58:42;;;;;;;;;;;24.60;44.10;;;;;;1568944;75;691;-73
2022/02/01 13:00:48;;;;;;;;;;;24.50;44.10;;;;;;1565131;75;1147;-72
2022/02/01 13:02:58;;;;;;;;;;;24.60;44.10;;;;;;1560549;75;719;-73
2022/02/01 13:05:02;;;;;;;;;;;24.60;44.10;;;;;;1566569;75;1146;-72
2022/02/01 13:07:14;;;;;;;;;;;24.60;44.10;;;;;;1559564;75;1931;-74
2022/02/01 13:14:29;;;;;;;;;;;24.50;44.00;;;;;;1559902;75;1662;-73
2022/02/01 13:18:24;;;;;;;;;;;24.60;44.10;;;;;;1571586;75;837;-75
2022/02/01 13:20:24;;;;;;;;;;;24.60;44.10;;;;;;1574691;75;1181;-74
2022/02/01 13:22:25;;;;;;;;;;;24.50;44.10;;;;;;1569033;75;975;-73
2022/02/01 13:24:29;;;;;;;;;;;24.50;44.10;;;;;;1568231;75;711;-72
2022/02/01 13:26:32;;;;;;;;;;;24.50;44.10;;;;;;1563013;75;1916;-73
2022/02/01 13:28:34;;;;;;;;;;;24.50;44.10;;;;;;1565009;75;691;-74
2022/02/01 13:30:36;;;;;;;;;;;24.60;44.00;;;;;;1560202;75;1143;-73
2022/02/01 13:32:38;;;;;;;;;;;24.60;44.10;;;;;;1573707;75;750;-73
2022/02/01 13:34:40;;;;;;;;;;;24.50;44.00;;;;;;1558644;75;691;-73